Terminal Aerodrome Forecast
Issued by NWS Lake Charles, LA

Home | Current Version | Previous Version | Text Only | Print | Product List | Glossary On
Versions: 1 2 3 4 5 6 7 8 9 10 11 12 13 14 15 16 17 18
000
FTUS44 KLCH 241734
TAFLFT
TAF
KLFT 241734Z 2418/2518 18012G18KT P6SM VCSH SCT025 BKN035 OVC050
     FM241900 19015G22KT P6SM VCSH SCT030 BKN050
      TEMPO 2419/2423 VRB20G30KT 2SM +TSRA BKN025CB OVC040
     FM250000 17008KT P6SM VCSH SCT050 BKN100
     FM250200 VRB04KT P6SM SCT120 BKN200=

USA.gov is the U.S. government's official web portal to all federal, state and local government web resources and services.